sensor_id;sensor_type;location;lat;lon;timestamp;temperature;humidity
14236;DHT22;7202;50.718;7.072;2023-07-31T00:01:36;18.40;99.90
14236;DHT22;7202;50.718;7.072;2023-07-31T00:04:05;18.50;99.90
14236;DHT22;7202;50.718;7.072;2023-07-31T00:06:33;18.50;99.90
14236;DHT22;7202;50.718;7.072;2023-07-31T00:09:02;18.50;99.90
14236;DHT22;7202;50.718;7.072;2023-07-31T00:11:31;18.50;99.90
14236;DHT22;7202;50.718;7.072;2023-07-31T00:13:59;18.50;99.90
14236;DHT22;7202;50.718;7.072;2023-07-31T00:16:28;18.60;99.90
14236;DHT22;7202;50.718;7.072;2023-07-31T00:18:58;18.50;99.90
14236;DHT22;7202;50.718;7.072;2023-07-31T00:21:26;18.50;99.90
14236;DHT22;7202;50.718;7.072;2023-07-31T00:23:55;18.60;99.90
14236;DHT22;7202;50.718;7.072;2023-07-31T00:26:24;18.60;99.90
14236;DHT22;7202;50.718;7.072;2023-07-31T00:28:56;18.50;99.90
14236;DHT22;7202;50.718;7.072;2023-07-31T00:31:31;18.60;99.90
14236;DHT22;7202;50.718;7.072;2023-07-31T00:34:01;18.60;99.90
14236;DHT22;7202;50.718;7.072;2023-07-31T00:36:30;18.60;99.90
14236;DHT22;7202;50.718;7.072;2023-07-31T00:38:59;18.50;99.90
14236;DHT22;7202;50.718;7.072;2023-07-31T00:41:28;18.50;99.90
14236;DHT22;7202;50.718;7.072;2023-07-31T00:43:56;18.40;99.90
14236;DHT22;7202;50.718;7.072;2023-07-31T00:46:25;18.50;99.90
14236;DHT22;7202;50.718;7.072;2023-07-31T00:48:55;18.40;99.90
14236;DHT22;7202;50.718;7.072;2023-07-31T00:51:26;18.40;99.90
14236;DHT22;7202;50.718;7.072;2023-07-31T00:53:56;18.40;99.90
14236;DHT22;7202;50.718;7.072;2023-07-31T00:56:25;18.40;99.90
14236;DHT22;7202;50.718;7.072;2023-07-31T00:58:55;18.40;99.90
14236;DHT22;7202;50.718;7.072;2023-07-31T01:01:24;18.40;99.90
14236;DHT22;7202;50.718;7.072;2023-07-31T01:03:53;18.30;99.90
14236;DHT22;7202;50.718;7.072;2023-07-31T01:06:29;18.30;99.90
14236;DHT22;7202;50.718;7.072;2023-07-31T01:09:04;18.30;99.90
14236;DHT22;7202;50.718;7.072;2023-07-31T01:11:46;18.30;99.90
14236;DHT22;7202;50.718;7.072;2023-07-31T01:14:17;18.30;99.90
14236;DHT22;7202;50.718;7.072;2023-07-31T01:16:46;18.30;99.90
14236;DHT22;7202;50.718;7.072;2023-07-31T01:19:18;18.30;99.90
14236;DHT22;7202;50.718;7.072;2023-07-31T01:22:27;18.30;99.90
14236;DHT22;7202;50.718;7.072;2023-07-31T01:25:09;18.20;99.90
14236;DHT22;7202;50.718;7.072;2023-07-31T01:27:47;18.20;99.90
14236;DHT22;7202;50.718;7.072;2023-07-31T01:30:22;18.20;99.90
14236;DHT22;7202;50.718;7.072;2023-07-31T01:32:54;18.20;99.90
14236;DHT22;7202;50.718;7.072;2023-07-31T01:35:23;18.10;99.90
14236;DHT22;7202;50.718;7.072;2023-07-31T01:37:52;18.10;99.90
14236;DHT22;7202;50.718;7.072;2023-07-31T01:40:21;18.10;99.90
14236;DHT22;7202;50.718;7.072;2023-07-31T01:42:51;18.00;99.90
14236;DHT22;7202;50.718;7.072;2023-07-31T01:45:20;18.00;99.90
14236;DHT22;7202;50.718;7.072;2023-07-31T01:47:48;18.00;99.90
14236;DHT22;7202;50.718;7.072;2023-07-31T01:50:17;18.00;99.90
14236;DHT22;7202;50.718;7.072;2023-07-31T01:52:45;18.00;99.90
14236;DHT22;7202;50.718;7.072;2023-07-31T01:55:14;18.00;99.90
14236;DHT22;7202;50.718;7.072;2023-07-31T01:57:43;18.10;99.90
14236;DHT22;7202;50.718;7.072;2023-07-31T02:00:13;18.10;99.90
14236;DHT22;7202;50.718;7.072;2023-07-31T02:02:43;18.10;99.90
14236;DHT22;7202;50.718;7.072;2023-07-31T02:05:12;18.00;99.90
14236;DHT22;7202;50.718;7.072;2023-07-31T02:07:41;18.10;99.90
14236;DHT22;7202;50.718;7.072;2023-07-31T02:10:09;18.10;99.90
14236;DHT22;7202;50.718;7.072;2023-07-31T02:12:38;18.10;99.90
14236;DHT22;7202;50.718;7.072;2023-07-31T02:15:07;18.10;99.90
14236;DHT22;7202;50.718;7.072;2023-07-31T02:17:37;18.10;99.90
14236;DHT22;7202;50.718;7.072;2023-07-31T02:20:07;18.10;99.90
14236;DHT22;7202;50.718;7.072;2023-07-31T02:22:36;18.10;99.90
14236;DHT22;7202;50.718;7.072;2023-07-31T02:25:05;18.10;99.90
14236;DHT22;7202;50.718;7.072;2023-07-31T02:27:34;18.10;99.90
14236;DHT22;7202;50.718;7.072;2023-07-31T02:30:03;18.00;99.90
14236;DHT22;7202;50.718;7.072;2023-07-31T02:32:31;18.00;99.90
14236;DHT22;7202;50.718;7.072;2023-07-31T02:35:01;18.00;99.90
14236;DHT22;7202;50.718;7.072;2023-07-31T02:37:30;18.10;99.90
14236;DHT22;7202;50.718;7.072;2023-07-31T02:39:59;18.10;99.90
14236;DHT22;7202;50.718;7.072;2023-07-31T02:42:28;18.00;99.90
14236;DHT22;7202;50.718;7.072;2023-07-31T02:44:57;18.10;99.90
14236;DHT22;7202;50.718;7.072;2023-07-31T02:47:26;18.10;99.90
14236;DHT22;7202;50.718;7.072;2023-07-31T02:49:55;18.00;99.90
14236;DHT22;7202;50.718;7.072;2023-07-31T02:52:25;18.10;99.90
14236;DHT22;7202;50.718;7.072;2023-07-31T02:54:54;18.10;99.90
14236;DHT22;7202;50.718;7.072;2023-07-31T02:57:22;18.10;99.90
14236;DHT22;7202;50.718;7.072;2023-07-31T02:59:51;18.10;99.90
14236;DHT22;7202;50.718;7.072;2023-07-31T03:02:20;18.10;99.90
14236;DHT22;7202;50.718;7.072;2023-07-31T03:04:49;18.10;99.90
14236;DHT22;7202;50.718;7.072;2023-07-31T03:07:17;18.10;99.90
14236;DHT22;7202;50.718;7.072;2023-07-31T03:09:47;18.10;99.90
14236;DHT22;7202;50.718;7.072;2023-07-31T03:12:16;18.20;99.90
14236;DHT22;7202;50.718;7.072;2023-07-31T03:14:45;18.10;99.90
14236;DHT22;7202;50.718;7.072;2023-07-31T03:17:13;18.10;99.90
14236;DHT22;7202;50.718;7.072;2023-07-31T03:19:42;18.10;99.90
14236;DHT22;7202;50.718;7.072;2023-07-31T03:22:10;18.10;99.90
14236;DHT22;7202;50.718;7.072;2023-07-31T03:24:39;18.10;99.90
14236;DHT22;7202;50.718;7.072;2023-07-31T03:27:09;18.10;99.90
14236;DHT22;7202;50.718;7.072;2023-07-31T03:29:37;18.10;99.90
14236;DHT22;7202;50.718;7.072;2023-07-31T03:32:06;18.10;99.90
14236;DHT22;7202;50.718;7.072;2023-07-31T03:34:36;18.10;99.90
14236;DHT22;7202;50.718;7.072;2023-07-31T03:37:06;18.10;99.90
14236;DHT22;7202;50.718;7.072;2023-07-31T03:39:36;18.00;99.90
14236;DHT22;7202;50.718;7.072;2023-07-31T03:42:05;18.10;99.90
14236;DHT22;7202;50.718;7.072;2023-07-31T03:44:36;18.10;99.90
14236;DHT22;7202;50.718;7.072;2023-07-31T03:47:05;18.10;99.90
14236;DHT22;7202;50.718;7.072;2023-07-31T03:49:34;18.10;99.90
14236;DHT22;7202;50.718;7.072;2023-07-31T03:52:03;18.10;99.90
14236;DHT22;7202;50.718;7.072;2023-07-31T03:54:31;18.10;99.90
14236;DHT22;7202;50.718;7.072;2023-07-31T03:57:00;18.10;99.90
14236;DHT22;7202;50.718;7.072;2023-07-31T03:59:29;18.10;99.90
14236;DHT22;7202;50.718;7.072;2023-07-31T04:01:59;18.20;99.90
14236;DHT22;7202;50.718;7.072;2023-07-31T04:04:27;18.10;99.90
14236;DHT22;7202;50.718;7.072;2023-07-31T04:06:56;18.10;99.90
14236;DHT22;7202;50.718;7.072;2023-07-31T04:09:24;18.10;99.90
14236;DHT22;7202;50.718;7.072;2023-07-31T04:11:53;18.10;99.90
14236;DHT22;7202;50.718;7.072;2023-07-31T04:14:22;18.00;99.90
14236;DHT22;7202;50.718;7.072;2023-07-31T04:16:51;18.00;99.90
14236;DHT22;7202;50.718;7.072;2023-07-31T04:19:21;18.10;99.90
14236;DHT22;7202;50.718;7.072;2023-07-31T04:21:50;18.10;99.90
14236;DHT22;7202;50.718;7.072;2023-07-31T04:24:18;18.10;99.90
14236;DHT22;7202;50.718;7.072;2023-07-31T04:26:52;18.10;99.90
14236;DHT22;7202;50.718;7.072;2023-07-31T04:29:20;18.10;99.90
14236;DHT22;7202;50.718;7.072;2023-07-31T04:31:49;18.00;99.90
14236;DHT22;7202;50.718;7.072;2023-07-31T04:34:18;18.10;99.90
14236;DHT22;7202;50.718;7.072;2023-07-31T04:36:47;18.10;99.90
14236;DHT22;7202;50.718;7.072;2023-07-31T04:39:16;18.00;99.90
14236;DHT22;7202;50.718;7.072;2023-07-31T04:41:45;18.00;99.90
14236;DHT22;7202;50.718;7.072;2023-07-31T04:44:14;18.10;99.90
14236;DHT22;7202;50.718;7.072;2023-07-31T04:46:43;18.00;99.90
14236;DHT22;7202;50.718;7.072;2023-07-31T04:49:11;18.00;99.90
14236;DHT22;7202;50.718;7.072;2023-07-31T04:51:39;18.00;99.90
14236;DHT22;7202;50.718;7.072;2023-07-31T04:54:09;18.00;99.90
14236;DHT22;7202;50.718;7.072;2023-07-31T04:56:39;18.10;99.90
14236;DHT22;7202;50.718;7.072;2023-07-31T04:59:08;18.10;99.90
14236;DHT22;7202;50.718;7.072;2023-07-31T05:01:36;18.10;99.90
14236;DHT22;7202;50.718;7.072;2023-07-31T05:04:05;18.10;99.90
14236;DHT22;7202;50.718;7.072;2023-07-31T05:06:35;18.20;99.90
14236;DHT22;7202;50.718;7.072;2023-07-31T05:09:04;18.20;99.90
14236;DHT22;7202;50.718;7.072;2023-07-31T05:11:34;18.30;99.90
14236;DHT22;7202;50.718;7.072;2023-07-31T05:14:03;18.30;99.90
14236;DHT22;7202;50.718;7.072;2023-07-31T05:16:31;18.30;99.90
14236;DHT22;7202;50.718;7.072;2023-07-31T05:19:00;18.40;99.90
14236;DHT22;7202;50.718;7.072;2023-07-31T05:21:31;18.40;99.90
14236;DHT22;7202;50.718;7.072;2023-07-31T05:24:00;18.40;99.90
14236;DHT22;7202;50.718;7.072;2023-07-31T05:26:28;18.40;99.90
14236;DHT22;7202;50.718;7.072;2023-07-31T05:28:58;18.40;99.90
14236;DHT22;7202;50.718;7.072;2023-07-31T05:31:27;18.40;99.90
14236;DHT22;7202;50.718;7.072;2023-07-31T05:33:56;18.40;99.90
14236;DHT22;7202;50.718;7.072;2023-07-31T05:36:24;18.50;99.90
14236;DHT22;7202;50.718;7.072;2023-07-31T05:38:53;18.50;99.90
14236;DHT22;7202;50.718;7.072;2023-07-31T05:41:21;18.60;99.90
14236;DHT22;7202;50.718;7.072;2023-07-31T05:43:50;18.60;99.90
14236;DHT22;7202;50.718;7.072;2023-07-31T05:46:20;18.60;99.90
14236;DHT22;7202;50.718;7.072;2023-07-31T05:48:49;19.00;99.90
14236;DHT22;7202;50.718;7.072;2023-07-31T05:51:17;18.60;99.90
14236;DHT22;7202;50.718;7.072;2023-07-31T05:53:46;18.60;99.90
14236;DHT22;7202;50.718;7.072;2023-07-31T05:56:15;18.60;99.90
14236;DHT22;7202;50.718;7.072;2023-07-31T05:58:43;18.60;99.90
14236;DHT22;7202;50.718;7.072;2023-07-31T06:01:12;18.60;99.90
14236;DHT22;7202;50.718;7.072;2023-07-31T06:03:42;18.60;99.90
14236;DHT22;7202;50.718;7.072;2023-07-31T06:06:11;18.60;99.90
14236;DHT22;7202;50.718;7.072;2023-07-31T06:08:40;18.60;99.90
14236;DHT22;7202;50.718;7.072;2023-07-31T06:11:09;18.70;99.90
14236;DHT22;7202;50.718;7.072;2023-07-31T06:13:37;18.60;99.90
14236;DHT22;7202;50.718;7.072;2023-07-31T06:16:09;18.50;99.90
14236;DHT22;7202;50.718;7.072;2023-07-31T06:18:38;18.50;99.90
14236;DHT22;7202;50.718;7.072;2023-07-31T06:21:08;18.50;99.90
14236;DHT22;7202;50.718;7.072;2023-07-31T06:23:37;18.50;99.90
14236;DHT22;7202;50.718;7.072;2023-07-31T06:26:06;18.40;99.90
14236;DHT22;7202;50.718;7.072;2023-07-31T06:28:34;18.40;99.90
14236;DHT22;7202;50.718;7.072;2023-07-31T06:31:03;18.30;99.90
14236;DHT22;7202;50.718;7.072;2023-07-31T06:33:32;18.20;99.90
14236;DHT22;7202;50.718;7.072;2023-07-31T06:36:01;18.20;99.90
14236;DHT22;7202;50.718;7.072;2023-07-31T06:38:31;18.10;99.90
14236;DHT22;7202;50.718;7.072;2023-07-31T06:40:59;18.10;99.90
14236;DHT22;7202;50.718;7.072;2023-07-31T06:43:28;18.00;99.90
14236;DHT22;7202;50.718;7.072;2023-07-31T06:45:57;18.00;99.90
14236;DHT22;7202;50.718;7.072;2023-07-31T06:48:25;17.90;99.90
14236;DHT22;7202;50.718;7.072;2023-07-31T06:50:54;17.90;99.90
14236;DHT22;7202;50.718;7.072;2023-07-31T06:53:22;17.90;99.90
14236;DHT22;7202;50.718;7.072;2023-07-31T06:55:52;17.90;99.90
14236;DHT22;7202;50.718;7.072;2023-07-31T06:58:22;17.90;99.90
14236;DHT22;7202;50.718;7.072;2023-07-31T07:00:50;17.90;99.90
14236;DHT22;7202;50.718;7.072;2023-07-31T07:03:19;17.90;99.90
14236;DHT22;7202;50.718;7.072;2023-07-31T07:05:48;18.00;99.90
14236;DHT22;7202;50.718;7.072;2023-07-31T07:08:16;18.00;99.90
14236;DHT22;7202;50.718;7.072;2023-07-31T07:10:45;18.10;99.90
14236;DHT22;7202;50.718;7.072;2023-07-31T07:13:15;18.10;99.90
14236;DHT22;7202;50.718;7.072;2023-07-31T07:15:48;18.20;99.90
14236;DHT22;7202;50.718;7.072;2023-07-31T07:18:17;18.40;99.90
14236;DHT22;7202;50.718;7.072;2023-07-31T07:20:47;18.50;99.90
14236;DHT22;7202;50.718;7.072;2023-07-31T07:23:16;18.50;99.90
14236;DHT22;7202;50.718;7.072;2023-07-31T07:25:45;18.50;99.90
14236;DHT22;7202;50.718;7.072;2023-07-31T07:28:14;18.60;99.90
14236;DHT22;7202;50.718;7.072;2023-07-31T07:30:44;18.60;99.90
14236;DHT22;7202;50.718;7.072;2023-07-31T07:33:13;18.60;99.90
14236;DHT22;7202;50.718;7.072;2023-07-31T07:35:41;18.60;99.90
14236;DHT22;7202;50.718;7.072;2023-07-31T07:38:10;18.60;99.90
14236;DHT22;7202;50.718;7.072;2023-07-31T07:40:39;18.60;99.90
14236;DHT22;7202;50.718;7.072;2023-07-31T07:43:07;18.60;99.90
14236;DHT22;7202;50.718;7.072;2023-07-31T07:45:36;18.60;99.90
14236;DHT22;7202;50.718;7.072;2023-07-31T07:48:06;18.50;99.90
14236;DHT22;7202;50.718;7.072;2023-07-31T07:50:35;18.40;99.90
14236;DHT22;7202;50.718;7.072;2023-07-31T07:53:04;18.40;99.90
14236;DHT22;7202;50.718;7.072;2023-07-31T07:55:33;18.40;99.90
14236;DHT22;7202;50.718;7.072;2023-07-31T07:58:01;18.30;99.90
14236;DHT22;7202;50.718;7.072;2023-07-31T08:00:30;18.20;99.90
14236;DHT22;7202;50.718;7.072;2023-07-31T08:02:59;18.20;99.90
14236;DHT22;7202;50.718;7.072;2023-07-31T08:05:29;18.10;99.90
14236;DHT22;7202;50.718;7.072;2023-07-31T08:08:01;18.10;99.90
14236;DHT22;7202;50.718;7.072;2023-07-31T08:10:30;18.00;99.90
14236;DHT22;7202;50.718;7.072;2023-07-31T08:12:58;18.00;99.90
14236;DHT22;7202;50.718;7.072;2023-07-31T08:15:27;18.00;99.90
14236;DHT22;7202;50.718;7.072;2023-07-31T08:17:56;18.00;99.90
14236;DHT22;7202;50.718;7.072;2023-07-31T08:20:24;18.00;99.90
14236;DHT22;7202;50.718;7.072;2023-07-31T08:22:56;18.00;99.90
14236;DHT22;7202;50.718;7.072;2023-07-31T08:25:25;18.00;99.90
14236;DHT22;7202;50.718;7.072;2023-07-31T08:27:53;18.00;99.90
14236;DHT22;7202;50.718;7.072;2023-07-31T08:30:22;17.90;99.90
14236;DHT22;7202;50.718;7.072;2023-07-31T08:32:51;17.90;99.90
14236;DHT22;7202;50.718;7.072;2023-07-31T08:35:20;17.90;99.90
14236;DHT22;7202;50.718;7.072;2023-07-31T08:37:49;17.90;99.90
14236;DHT22;7202;50.718;7.072;2023-07-31T08:40:19;17.90;99.90
14236;DHT22;7202;50.718;7.072;2023-07-31T08:42:52;17.90;99.90
14236;DHT22;7202;50.718;7.072;2023-07-31T08:45:21;17.90;99.90
14236;DHT22;7202;50.718;7.072;2023-07-31T08:47:51;17.90;99.90
14236;DHT22;7202;50.718;7.072;2023-07-31T08:50:21;17.80;99.90
14236;DHT22;7202;50.718;7.072;2023-07-31T08:52:51;17.90;99.90
14236;DHT22;7202;50.718;7.072;2023-07-31T08:55:23;17.90;99.90
14236;DHT22;7202;50.718;7.072;2023-07-31T08:57:52;17.80;99.90
14236;DHT22;7202;50.718;7.072;2023-07-31T09:00:21;17.90;99.90
14236;DHT22;7202;50.718;7.072;2023-07-31T09:02:55;17.80;99.90
14236;DHT22;7202;50.718;7.072;2023-07-31T09:05:26;17.90;99.90
14236;DHT22;7202;50.718;7.072;2023-07-31T09:07:56;17.80;99.90
14236;DHT22;7202;50.718;7.072;2023-07-31T09:10:26;17.90;99.90
14236;DHT22;7202;50.718;7.072;2023-07-31T09:12:56;17.90;99.90
14236;DHT22;7202;50.718;7.072;2023-07-31T09:15:24;17.80;99.90
14236;DHT22;7202;50.718;7.072;2023-07-31T09:18:06;17.90;99.90
14236;DHT22;7202;50.718;7.072;2023-07-31T09:20:35;17.90;99.90
14236;DHT22;7202;50.718;7.072;2023-07-31T09:23:06;17.80;99.90
14236;DHT22;7202;50.718;7.072;2023-07-31T09:25:38;17.90;99.90
14236;DHT22;7202;50.718;7.072;2023-07-31T09:28:09;17.90;99.90
14236;DHT22;7202;50.718;7.072;2023-07-31T09:30:46;17.90;99.90
14236;DHT22;7202;50.718;7.072;2023-07-31T09:33:16;17.90;99.90
14236;DHT22;7202;50.718;7.072;2023-07-31T09:35:44;17.90;99.90
14236;DHT22;7202;50.718;7.072;2023-07-31T09:38:14;17.90;99.90
14236;DHT22;7202;50.718;7.072;2023-07-31T09:40:46;17.90;99.90
14236;DHT22;7202;50.718;7.072;2023-07-31T09:43:18;17.90;99.90
14236;DHT22;7202;50.718;7.072;2023-07-31T09:45:48;18.00;99.90
14236;DHT22;7202;50.718;7.072;2023-07-31T09:48:17;18.00;99.90
14236;DHT22;7202;50.718;7.072;2023-07-31T09:50:47;18.00;99.90
14236;DHT22;7202;50.718;7.072;2023-07-31T09:53:16;18.00;99.90
14236;DHT22;7202;50.718;7.072;2023-07-31T09:55:46;18.00;99.90
14236;DHT22;7202;50.718;7.072;2023-07-31T09:58:15;17.90;99.90
14236;DHT22;7202;50.718;7.072;2023-07-31T10:00:44;18.00;99.90
14236;DHT22;7202;50.718;7.072;2023-07-31T10:03:14;18.00;99.90
14236;DHT22;7202;50.718;7.072;2023-07-31T10:05:48;18.00;99.90
14236;DHT22;7202;50.718;7.072;2023-07-31T10:08:21;18.20;99.90
14236;DHT22;7202;50.718;7.072;2023-07-31T10:10:51;18.10;99.90
14236;DHT22;7202;50.718;7.072;2023-07-31T10:13:20;18.20;99.90
14236;DHT22;7202;50.718;7.072;2023-07-31T10:15:50;18.40;99.90
14236;DHT22;7202;50.718;7.072;2023-07-31T10:18:19;18.50;99.90
14236;DHT22;7202;50.718;7.072;2023-07-31T10:20:49;18.60;99.90
14236;DHT22;7202;50.718;7.072;2023-07-31T10:23:18;18.80;99.90
14236;DHT22;7202;50.718;7.072;2023-07-31T10:25:47;18.90;99.90
14236;DHT22;7202;50.718;7.072;2023-07-31T10:28:18;19.00;99.90
14236;DHT22;7202;50.718;7.072;2023-07-31T10:30:47;19.10;99.90
14236;DHT22;7202;50.718;7.072;2023-07-31T10:33:18;19.20;99.90
14236;DHT22;7202;50.718;7.072;2023-07-31T10:35:47;19.40;99.90
14236;DHT22;7202;50.718;7.072;2023-07-31T10:38:16;19.50;99.90
14236;DHT22;7202;50.718;7.072;2023-07-31T10:40:45;19.60;99.90
14236;DHT22;7202;50.718;7.072;2023-07-31T10:43:25;19.70;99.90
14236;DHT22;7202;50.718;7.072;2023-07-31T10:45:54;19.80;99.90
14236;DHT22;7202;50.718;7.072;2023-07-31T10:48:23;19.90;99.90
14236;DHT22;7202;50.718;7.072;2023-07-31T10:50:55;20.00;99.90
14236;DHT22;7202;50.718;7.072;2023-07-31T10:53:25;20.10;99.90
14236;DHT22;7202;50.718;7.072;2023-07-31T10:55:58;20.10;99.90
14236;DHT22;7202;50.718;7.072;2023-07-31T10:58:28;20.20;99.90
14236;DHT22;7202;50.718;7.072;2023-07-31T11:01:00;20.20;99.90
14236;DHT22;7202;50.718;7.072;2023-07-31T11:03:43;20.20;99.90
14236;DHT22;7202;50.718;7.072;2023-07-31T11:06:13;20.30;99.90
14236;DHT22;7202;50.718;7.072;2023-07-31T11:08:46;20.30;99.90
14236;DHT22;7202;50.718;7.072;2023-07-31T11:11:18;20.40;99.90
14236;DHT22;7202;50.718;7.072;2023-07-31T11:13:49;20.40;99.90
14236;DHT22;7202;50.718;7.072;2023-07-31T11:16:20;20.50;99.90
14236;DHT22;7202;50.718;7.072;2023-07-31T11:18:50;20.50;99.90
14236;DHT22;7202;50.718;7.072;2023-07-31T11:21:22;20.60;99.90
14236;DHT22;7202;50.718;7.072;2023-07-31T11:23:51;20.60;99.90
14236;DHT22;7202;50.718;7.072;2023-07-31T11:26:20;20.60;99.90
14236;DHT22;7202;50.718;7.072;2023-07-31T11:28:51;20.60;99.90
14236;DHT22;7202;50.718;7.072;2023-07-31T11:31:20;20.50;99.90
14236;DHT22;7202;50.718;7.072;2023-07-31T11:33:49;20.60;99.90
14236;DHT22;7202;50.718;7.072;2023-07-31T11:36:19;20.60;99.90
14236;DHT22;7202;50.718;7.072;2023-07-31T11:38:48;20.50;99.90
14236;DHT22;7202;50.718;7.072;2023-07-31T11:41:17;20.40;99.90
14236;DHT22;7202;50.718;7.072;2023-07-31T11:43:45;20.30;99.90
14236;DHT22;7202;50.718;7.072;2023-07-31T11:46:15;20.20;99.90
14236;DHT22;7202;50.718;7.072;2023-07-31T11:48:46;20.10;99.90
14236;DHT22;7202;50.718;7.072;2023-07-31T11:51:15;20.10;99.90
14236;DHT22;7202;50.718;7.072;2023-07-31T11:53:47;20.10;99.90
14236;DHT22;7202;50.718;7.072;2023-07-31T11:56:17;20.20;99.90
14236;DHT22;7202;50.718;7.072;2023-07-31T11:58:47;20.20;99.90
14236;DHT22;7202;50.718;7.072;2023-07-31T12:01:20;20.30;99.90
14236;DHT22;7202;50.718;7.072;2023-07-31T12:03:49;20.50;99.90
14236;DHT22;7202;50.718;7.072;2023-07-31T12:06:19;20.60;99.90
14236;DHT22;7202;50.718;7.072;2023-07-31T12:08:48;20.70;99.90
14236;DHT22;7202;50.718;7.072;2023-07-31T12:11:17;20.90;99.90
14236;DHT22;7202;50.718;7.072;2023-07-31T12:13:46;21.10;99.90
14236;DHT22;7202;50.718;7.072;2023-07-31T12:16:14;21.30;99.90
14236;DHT22;7202;50.718;7.072;2023-07-31T12:18:45;21.60;99.90
14236;DHT22;7202;50.718;7.072;2023-07-31T12:21:13;21.80;99.90
14236;DHT22;7202;50.718;7.072;2023-07-31T12:23:44;22.00;99.90
14236;DHT22;7202;50.718;7.072;2023-07-31T12:26:14;22.10;99.90
14236;DHT22;7202;50.718;7.072;2023-07-31T12:28:44;22.30;99.90
14236;DHT22;7202;50.718;7.072;2023-07-31T12:31:14;22.40;99.90
14236;DHT22;7202;50.718;7.072;2023-07-31T12:33:47;22.40;99.90
14236;DHT22;7202;50.718;7.072;2023-07-31T12:36:18;22.50;99.90
14236;DHT22;7202;50.718;7.072;2023-07-31T12:38:49;22.50;99.90
14236;DHT22;7202;50.718;7.072;2023-07-31T12:41:18;22.50;99.90
14236;DHT22;7202;50.718;7.072;2023-07-31T12:43:46;22.50;99.90
14236;DHT22;7202;50.718;7.072;2023-07-31T12:46:15;22.40;99.90
14236;DHT22;7202;50.718;7.072;2023-07-31T12:48:45;22.40;99.90
14236;DHT22;7202;50.718;7.072;2023-07-31T12:51:14;22.30;99.90
14236;DHT22;7202;50.718;7.072;2023-07-31T12:53:43;22.30;99.90
14236;DHT22;7202;50.718;7.072;2023-07-31T12:56:11;22.10;99.90
14236;DHT22;7202;50.718;7.072;2023-07-31T12:58:40;22.00;99.90
14236;DHT22;7202;50.718;7.072;2023-07-31T13:01:08;21.90;99.90
14236;DHT22;7202;50.718;7.072;2023-07-31T13:03:37;21.80;99.90
14236;DHT22;7202;50.718;7.072;2023-07-31T13:06:07;21.80;99.90
14236;DHT22;7202;50.718;7.072;2023-07-31T13:08:36;21.80;99.90
14236;DHT22;7202;50.718;7.072;2023-07-31T13:11:04;21.70;99.90
14236;DHT22;7202;50.718;7.072;2023-07-31T13:13:33;21.70;99.90
14236;DHT22;7202;50.718;7.072;2023-07-31T13:16:02;21.70;99.90
14236;DHT22;7202;50.718;7.072;2023-07-31T13:18:30;21.70;99.90
14236;DHT22;7202;50.718;7.072;2023-07-31T13:20:59;21.80;99.90
14236;DHT22;7202;50.718;7.072;2023-07-31T13:23:29;21.80;99.90
14236;DHT22;7202;50.718;7.072;2023-07-31T13:25:57;21.80;99.90
14236;DHT22;7202;50.718;7.072;2023-07-31T13:28:26;21.80;99.90
14236;DHT22;7202;50.718;7.072;2023-07-31T13:30:54;21.80;99.90
14236;DHT22;7202;50.718;7.072;2023-07-31T13:33:23;21.80;99.90
14236;DHT22;7202;50.718;7.072;2023-07-31T13:36:04;21.80;99.90
14236;DHT22;7202;50.718;7.072;2023-07-31T13:38:34;21.80;99.90
14236;DHT22;7202;50.718;7.072;2023-07-31T13:41:03;21.90;99.90
14236;DHT22;7202;50.718;7.072;2023-07-31T13:43:32;22.00;99.90
14236;DHT22;7202;50.718;7.072;2023-07-31T13:46:01;21.90;99.90
14236;DHT22;7202;50.718;7.072;2023-07-31T13:48:34;21.90;99.90
14236;DHT22;7202;50.718;7.072;2023-07-31T13:51:03;21.90;99.90
14236;DHT22;7202;50.718;7.072;2023-07-31T13:53:33;21.90;99.90
14236;DHT22;7202;50.718;7.072;2023-07-31T13:56:02;21.90;99.90
14236;DHT22;7202;50.718;7.072;2023-07-31T13:58:30;21.90;99.90
14236;DHT22;7202;50.718;7.072;2023-07-31T14:00:59;22.00;99.90
14236;DHT22;7202;50.718;7.072;2023-07-31T14:03:28;22.00;99.90
14236;DHT22;7202;50.718;7.072;2023-07-31T14:05:57;22.10;99.90
14236;DHT22;7202;50.718;7.072;2023-07-31T14:08:25;22.20;99.90
14236;DHT22;7202;50.718;7.072;2023-07-31T14:10:55;22.20;99.90
14236;DHT22;7202;50.718;7.072;2023-07-31T14:13:24;22.20;99.90
14236;DHT22;7202;50.718;7.072;2023-07-31T14:15:52;22.20;99.90
14236;DHT22;7202;50.718;7.072;2023-07-31T14:18:21;22.20;99.90
14236;DHT22;7202;50.718;7.072;2023-07-31T14:20:50;22.20;99.90
14236;DHT22;7202;50.718;7.072;2023-07-31T14:23:19;22.20;99.90
14236;DHT22;7202;50.718;7.072;2023-07-31T14:25:48;22.10;99.90
14236;DHT22;7202;50.718;7.072;2023-07-31T14:28:18;22.00;99.90
14236;DHT22;7202;50.718;7.072;2023-07-31T14:30:46;21.90;99.90
14236;DHT22;7202;50.718;7.072;2023-07-31T14:33:15;21.90;99.90
14236;DHT22;7202;50.718;7.072;2023-07-31T14:35:44;21.80;99.90
14236;DHT22;7202;50.718;7.072;2023-07-31T14:38:12;21.70;99.90
14236;DHT22;7202;50.718;7.072;2023-07-31T14:40:41;21.60;99.90
14236;DHT22;7202;50.718;7.072;2023-07-31T14:43:10;21.50;99.90
14236;DHT22;7202;50.718;7.072;2023-07-31T14:45:40;21.50;99.90
14236;DHT22;7202;50.718;7.072;2023-07-31T14:48:09;21.30;99.90
14236;DHT22;7202;50.718;7.072;2023-07-31T14:50:37;21.30;99.90
14236;DHT22;7202;50.718;7.072;2023-07-31T14:53:06;21.20;99.90
14236;DHT22;7202;50.718;7.072;2023-07-31T14:55:35;21.20;99.90
14236;DHT22;7202;50.718;7.072;2023-07-31T14:58:03;21.10;99.90
14236;DHT22;7202;50.718;7.072;2023-07-31T15:00:32;21.10;99.90
14236;DHT22;7202;50.718;7.072;2023-07-31T15:03:02;21.10;99.90
14236;DHT22;7202;50.718;7.072;2023-07-31T15:05:31;21.00;99.90
14236;DHT22;7202;50.718;7.072;2023-07-31T15:07:59;21.00;99.90
14236;DHT22;7202;50.718;7.072;2023-07-31T15:10:28;21.00;99.90
14236;DHT22;7202;50.718;7.072;2023-07-31T15:12:57;21.00;99.90
14236;DHT22;7202;50.718;7.072;2023-07-31T15:15:26;21.00;99.90
14236;DHT22;7202;50.718;7.072;2023-07-31T15:17:54;21.00;99.90
14236;DHT22;7202;50.718;7.072;2023-07-31T15:20:25;20.90;99.90
14236;DHT22;7202;50.718;7.072;2023-07-31T15:22:54;20.80;99.90
14236;DHT22;7202;50.718;7.072;2023-07-31T15:25:23;20.80;99.90
14236;DHT22;7202;50.718;7.072;2023-07-31T15:27:52;20.70;99.90
14236;DHT22;7202;50.718;7.072;2023-07-31T15:30:20;20.70;99.90
14236;DHT22;7202;50.718;7.072;2023-07-31T15:32:49;20.60;99.90
14236;DHT22;7202;50.718;7.072;2023-07-31T15:35:18;20.60;99.90
14236;DHT22;7202;50.718;7.072;2023-07-31T15:37:50;20.50;99.90
14236;DHT22;7202;50.718;7.072;2023-07-31T15:40:19;20.60;99.90
14236;DHT22;7202;50.718;7.072;2023-07-31T15:42:47;20.60;99.90
14236;DHT22;7202;50.718;7.072;2023-07-31T15:45:16;20.70;99.90
14236;DHT22;7202;50.718;7.072;2023-07-31T15:47:44;20.70;99.90
14236;DHT22;7202;50.718;7.072;2023-07-31T15:50:13;20.80;99.90
14236;DHT22;7202;50.718;7.072;2023-07-31T15:52:42;20.80;99.90
14236;DHT22;7202;50.718;7.072;2023-07-31T15:55:12;20.70;99.90
14236;DHT22;7202;50.718;7.072;2023-07-31T15:57:40;20.80;99.90
14236;DHT22;7202;50.718;7.072;2023-07-31T16:00:10;20.70;99.90